sensor_id;sensor_type;location;lat;lon;timestamp;P1;durP1;ratioP1;P2;durP2;ratioP2
66585;SDS011;53444;45.822;16.092;2023-06-26T00:00:27;10.18;;;4.50;;
66585;SDS011;53444;45.822;16.092;2023-06-26T00:02:54;8.53;;;4.63;;
66585;SDS011;53444;45.822;16.092;2023-06-26T00:05:21;6.97;;;5.00;;
66585;SDS011;53444;45.822;16.092;2023-06-26T00:07:47;7.90;;;4.70;;
66585;SDS011;53444;45.822;16.092;2023-06-26T00:10:14;7.10;;;4.85;;
66585;SDS011;53444;45.822;16.092;2023-06-26T00:12:40;8.02;;;4.63;;
66585;SDS011;53444;45.822;16.092;2023-06-26T00:15:09;8.67;;;4.60;;
66585;SDS011;53444;45.822;16.092;2023-06-26T00:17:35;6.78;;;4.50;;
66585;SDS011;53444;45.822;16.092;2023-06-26T00:20:03;7.05;;;5.07;;
66585;SDS011;53444;45.822;16.092;2023-06-26T00:22:31;9.82;;;5.10;;
66585;SDS011;53444;45.822;16.092;2023-06-26T00:24:58;6.15;;;4.18;;
66585;SDS011;53444;45.822;16.092;2023-06-26T00:27:25;9.17;;;5.50;;
66585;SDS011;53444;45.822;16.092;2023-06-26T00:29:51;7.97;;;4.93;;
66585;SDS011;53444;45.822;16.092;2023-06-26T00:32:19;7.55;;;4.70;;
66585;SDS011;53444;45.822;16.092;2023-06-26T00:34:46;6.15;;;4.45;;
66585;SDS011;53444;45.822;16.092;2023-06-26T00:37:13;7.10;;;4.53;;
66585;SDS011;53444;45.822;16.092;2023-06-26T00:39:39;6.80;;;4.60;;
66585;SDS011;53444;45.822;16.092;2023-06-26T00:42:06;7.47;;;4.80;;
66585;SDS011;53444;45.822;16.092;2023-06-26T00:44:33;8.43;;;4.90;;
66585;SDS011;53444;45.822;16.092;2023-06-26T00:46:59;7.55;;;4.70;;
66585;SDS011;53444;45.822;16.092;2023-06-26T00:49:28;7.07;;;4.40;;
66585;SDS011;53444;45.822;16.092;2023-06-26T00:51:55;7.27;;;4.27;;
66585;SDS011;53444;45.822;16.092;2023-06-26T00:54:22;6.88;;;4.65;;
66585;SDS011;53444;45.822;16.092;2023-06-26T00:56:49;7.65;;;4.40;;
66585;SDS011;53444;45.822;16.092;2023-06-26T00:59:15;6.63;;;4.63;;
66585;SDS011;53444;45.822;16.092;2023-06-26T01:01:42;7.60;;;5.00;;
66585;SDS011;53444;45.822;16.092;2023-06-26T01:04:09;6.70;;;4.40;;
66585;SDS011;53444;45.822;16.092;2023-06-26T01:06:43;8.23;;;4.93;;
66585;SDS011;53444;45.822;16.092;2023-06-26T01:09:14;6.53;;;4.68;;
66585;SDS011;53444;45.822;16.092;2023-06-26T01:11:42;8.13;;;4.57;;
66585;SDS011;53444;45.822;16.092;2023-06-26T01:14:09;7.00;;;4.50;;
66585;SDS011;53444;45.822;16.092;2023-06-26T01:16:36;7.43;;;4.30;;
66585;SDS011;53444;45.822;16.092;2023-06-26T01:19:04;6.88;;;4.20;;
66585;SDS011;53444;45.822;16.092;2023-06-26T01:21:40;7.00;;;4.28;;
66585;SDS011;53444;45.822;16.092;2023-06-26T01:24:12;7.18;;;4.50;;
66585;SDS011;53444;45.822;16.092;2023-06-26T01:26:46;6.78;;;4.35;;
66585;SDS011;53444;45.822;16.092;2023-06-26T01:29:15;8.83;;;4.90;;
66585;SDS011;53444;45.822;16.092;2023-06-26T01:31:44;6.07;;;4.35;;
66585;SDS011;53444;45.822;16.092;2023-06-26T01:34:14;6.32;;;4.30;;
66585;SDS011;53444;45.822;16.092;2023-06-26T01:36:41;10.63;;;4.40;;
66585;SDS011;53444;45.822;16.092;2023-06-26T01:39:08;8.18;;;4.57;;
66585;SDS011;53444;45.822;16.092;2023-06-26T01:41:34;6.97;;;3.93;;
66585;SDS011;53444;45.822;16.092;2023-06-26T01:44:07;7.85;;;4.53;;
66585;SDS011;53444;45.822;16.092;2023-06-26T01:46:43;7.47;;;4.78;;
66585;SDS011;53444;45.822;16.092;2023-06-26T01:49:19;7.00;;;4.00;;
66585;SDS011;53444;45.822;16.092;2023-06-26T01:51:51;6.40;;;4.13;;
66585;SDS011;53444;45.822;16.092;2023-06-26T01:54:24;6.83;;;4.03;;
66585;SDS011;53444;45.822;16.092;2023-06-26T01:56:55;7.25;;;4.78;;
66585;SDS011;53444;45.822;16.092;2023-06-26T01:59:24;6.85;;;4.32;;
66585;SDS011;53444;45.822;16.092;2023-06-26T02:01:54;6.05;;;4.00;;
66585;SDS011;53444;45.822;16.092;2023-06-26T02:04:21;8.88;;;4.40;;
66585;SDS011;53444;45.822;16.092;2023-06-26T02:06:47;7.00;;;4.30;;
66585;SDS011;53444;45.822;16.092;2023-06-26T02:09:14;7.18;;;4.30;;
66585;SDS011;53444;45.822;16.092;2023-06-26T02:11:40;6.40;;;3.38;;
66585;SDS011;53444;45.822;16.092;2023-06-26T02:14:07;6.43;;;4.30;;
66585;SDS011;53444;45.822;16.092;2023-06-26T02:16:37;7.13;;;4.68;;
66585;SDS011;53444;45.822;16.092;2023-06-26T02:19:04;7.17;;;4.27;;
66585;SDS011;53444;45.822;16.092;2023-06-26T02:21:30;7.38;;;4.22;;
66585;SDS011;53444;45.822;16.092;2023-06-26T02:23:57;7.20;;;4.45;;
66585;SDS011;53444;45.822;16.092;2023-06-26T02:26:23;7.38;;;4.65;;
66585;SDS011;53444;45.822;16.092;2023-06-26T02:28:50;6.72;;;4.35;;
66585;SDS011;53444;45.822;16.092;2023-06-26T02:31:16;6.97;;;4.28;;
66585;SDS011;53444;45.822;16.092;2023-06-26T02:33:44;7.78;;;4.60;;
66585;SDS011;53444;45.822;16.092;2023-06-26T02:36:11;7.63;;;4.95;;
66585;SDS011;53444;45.822;16.092;2023-06-26T02:38:38;7.57;;;4.07;;
66585;SDS011;53444;45.822;16.092;2023-06-26T02:41:04;7.70;;;4.32;;
66585;SDS011;53444;45.822;16.092;2023-06-26T02:43:31;6.70;;;4.70;;
66585;SDS011;53444;45.822;16.092;2023-06-26T02:45:57;7.22;;;4.63;;
66585;SDS011;53444;45.822;16.092;2023-06-26T02:48:24;7.25;;;4.78;;
66585;SDS011;53444;45.822;16.092;2023-06-26T02:50:52;8.65;;;4.80;;
66585;SDS011;53444;45.822;16.092;2023-06-26T02:53:19;7.13;;;4.45;;
66585;SDS011;53444;45.822;16.092;2023-06-26T02:55:46;9.07;;;4.17;;
66585;SDS011;53444;45.822;16.092;2023-06-26T02:58:13;6.47;;;4.13;;
66585;SDS011;53444;45.822;16.092;2023-06-26T03:03:15;7.40;;;4.47;;
66585;SDS011;53444;45.822;16.092;2023-06-26T03:05:45;7.55;;;4.82;;
66585;SDS011;53444;45.822;16.092;2023-06-26T03:08:13;7.07;;;4.47;;
66585;SDS011;53444;45.822;16.092;2023-06-26T03:10:40;5.72;;;3.72;;
66585;SDS011;53444;45.822;16.092;2023-06-26T03:13:07;7.78;;;4.20;;
66585;SDS011;53444;45.822;16.092;2023-06-26T03:15:33;7.60;;;4.82;;
66585;SDS011;53444;45.822;16.092;2023-06-26T03:18:00;8.70;;;4.40;;
66585;SDS011;53444;45.822;16.092;2023-06-26T03:20:26;8.00;;;4.60;;
66585;SDS011;53444;45.822;16.092;2023-06-26T03:22:53;6.38;;;4.45;;
66585;SDS011;53444;45.822;16.092;2023-06-26T03:25:21;7.75;;;4.43;;
66585;SDS011;53444;45.822;16.092;2023-06-26T03:27:47;6.40;;;4.10;;
66585;SDS011;53444;45.822;16.092;2023-06-26T03:30:14;8.43;;;4.25;;
66585;SDS011;53444;45.822;16.092;2023-06-26T03:32:41;8.90;;;4.17;;
66585;SDS011;53444;45.822;16.092;2023-06-26T03:35:08;9.07;;;4.53;;
66585;SDS011;53444;45.822;16.092;2023-06-26T03:37:35;6.82;;;4.10;;
66585;SDS011;53444;45.822;16.092;2023-06-26T03:40:01;7.65;;;4.93;;
66585;SDS011;53444;45.822;16.092;2023-06-26T03:42:31;6.95;;;4.60;;
66585;SDS011;53444;45.822;16.092;2023-06-26T03:44:57;7.93;;;4.63;;
66585;SDS011;53444;45.822;16.092;2023-06-26T03:47:24;8.48;;;4.78;;
66585;SDS011;53444;45.822;16.092;2023-06-26T03:49:50;7.07;;;4.93;;
66585;SDS011;53444;45.822;16.092;2023-06-26T03:52:17;9.23;;;5.13;;
66585;SDS011;53444;45.822;16.092;2023-06-26T03:54:44;7.00;;;4.55;;
66585;SDS011;53444;45.822;16.092;2023-06-26T03:57:10;7.23;;;4.90;;
66585;SDS011;53444;45.822;16.092;2023-06-26T03:59:38;8.93;;;5.00;;
66585;SDS011;53444;45.822;16.092;2023-06-26T04:02:05;7.45;;;4.53;;
66585;SDS011;53444;45.822;16.092;2023-06-26T04:04:32;7.47;;;4.88;;
66585;SDS011;53444;45.822;16.092;2023-06-26T04:06:58;8.23;;;4.53;;
66585;SDS011;53444;45.822;16.092;2023-06-26T04:09:25;7.40;;;4.67;;
66585;SDS011;53444;45.822;16.092;2023-06-26T04:11:52;6.50;;;4.47;;
66585;SDS011;53444;45.822;16.092;2023-06-26T04:14:18;7.43;;;4.45;;
66585;SDS011;53444;45.822;16.092;2023-06-26T04:16:46;8.20;;;4.57;;
66585;SDS011;53444;45.822;16.092;2023-06-26T04:19:13;8.15;;;4.80;;
66585;SDS011;53444;45.822;16.092;2023-06-26T04:21:39;8.05;;;5.30;;
66585;SDS011;53444;45.822;16.092;2023-06-26T04:24:06;8.43;;;5.05;;
66585;SDS011;53444;45.822;16.092;2023-06-26T04:26:33;8.27;;;5.30;;
66585;SDS011;53444;45.822;16.092;2023-06-26T04:28:59;6.75;;;4.60;;
66585;SDS011;53444;45.822;16.092;2023-06-26T04:31:26;13.82;;;5.72;;
66585;SDS011;53444;45.822;16.092;2023-06-26T04:33:54;8.10;;;5.32;;
66585;SDS011;53444;45.822;16.092;2023-06-26T04:36:21;12.15;;;5.50;;
66585;SDS011;53444;45.822;16.092;2023-06-26T04:38:47;9.38;;;5.30;;
66585;SDS011;53444;45.822;16.092;2023-06-26T04:41:15;7.32;;;4.55;;
66585;SDS011;53444;45.822;16.092;2023-06-26T04:43:44;8.60;;;5.28;;
66585;SDS011;53444;45.822;16.092;2023-06-26T04:46:20;8.32;;;5.07;;
66585;SDS011;53444;45.822;16.092;2023-06-26T04:48:47;10.98;;;5.53;;
66585;SDS011;53444;45.822;16.092;2023-06-26T04:51:15;7.60;;;5.47;;
66585;SDS011;53444;45.822;16.092;2023-06-26T04:53:46;8.68;;;5.22;;
66585;SDS011;53444;45.822;16.092;2023-06-26T04:56:13;9.45;;;5.13;;
66585;SDS011;53444;45.822;16.092;2023-06-26T04:58:45;7.87;;;4.97;;
66585;SDS011;53444;45.822;16.092;2023-06-26T05:01:28;8.15;;;5.03;;
66585;SDS011;53444;45.822;16.092;2023-06-26T05:03:59;10.50;;;6.10;;
66585;SDS011;53444;45.822;16.092;2023-06-26T05:06:30;9.00;;;5.53;;
66585;SDS011;53444;45.822;16.092;2023-06-26T05:08:57;8.10;;;5.22;;
66585;SDS011;53444;45.822;16.092;2023-06-26T05:11:24;9.47;;;6.17;;
66585;SDS011;53444;45.822;16.092;2023-06-26T05:13:51;8.43;;;5.18;;
66585;SDS011;53444;45.822;16.092;2023-06-26T05:16:19;9.30;;;5.43;;
66585;SDS011;53444;45.822;16.092;2023-06-26T05:18:46;9.60;;;5.70;;
66585;SDS011;53444;45.822;16.092;2023-06-26T05:21:13;8.30;;;5.35;;
66585;SDS011;53444;45.822;16.092;2023-06-26T05:23:44;8.87;;;5.27;;
66585;SDS011;53444;45.822;16.092;2023-06-26T05:26:13;7.68;;;5.03;;
66585;SDS011;53444;45.822;16.092;2023-06-26T05:28:41;7.97;;;5.65;;
66585;SDS011;53444;45.822;16.092;2023-06-26T05:31:09;7.95;;;4.93;;
66585;SDS011;53444;45.822;16.092;2023-06-26T05:33:37;7.72;;;5.15;;
66585;SDS011;53444;45.822;16.092;2023-06-26T05:36:06;8.73;;;5.70;;
66585;SDS011;53444;45.822;16.092;2023-06-26T05:38:35;8.02;;;5.20;;
66585;SDS011;53444;45.822;16.092;2023-06-26T05:41:04;9.02;;;5.32;;
66585;SDS011;53444;45.822;16.092;2023-06-26T05:43:32;7.82;;;5.00;;
66585;SDS011;53444;45.822;16.092;2023-06-26T05:46:02;9.20;;;5.03;;
66585;SDS011;53444;45.822;16.092;2023-06-26T05:48:29;9.90;;;5.33;;
66585;SDS011;53444;45.822;16.092;2023-06-26T05:50:57;9.05;;;5.40;;
66585;SDS011;53444;45.822;16.092;2023-06-26T05:53:24;10.55;;;4.95;;
66585;SDS011;53444;45.822;16.092;2023-06-26T05:55:52;8.55;;;5.72;;
66585;SDS011;53444;45.822;16.092;2023-06-26T05:58:21;8.70;;;5.00;;
66585;SDS011;53444;45.822;16.092;2023-06-26T06:00:51;9.87;;;5.77;;
66585;SDS011;53444;45.822;16.092;2023-06-26T06:03:18;8.18;;;5.53;;
66585;SDS011;53444;45.822;16.092;2023-06-26T06:05:45;8.05;;;5.20;;
66585;SDS011;53444;45.822;16.092;2023-06-26T06:08:12;9.95;;;5.55;;
66585;SDS011;53444;45.822;16.092;2023-06-26T06:10:40;9.77;;;5.80;;
66585;SDS011;53444;45.822;16.092;2023-06-26T06:13:07;7.80;;;5.63;;
66585;SDS011;53444;45.822;16.092;2023-06-26T06:15:35;8.32;;;5.65;;
66585;SDS011;53444;45.822;16.092;2023-06-26T06:18:02;8.50;;;5.97;;
66585;SDS011;53444;45.822;16.092;2023-06-26T06:20:30;9.60;;;5.45;;
66585;SDS011;53444;45.822;16.092;2023-06-26T06:22:57;8.68;;;5.65;;
66585;SDS011;53444;45.822;16.092;2023-06-26T06:25:25;10.40;;;5.07;;
66585;SDS011;53444;45.822;16.092;2023-06-26T06:27:52;7.90;;;5.22;;
66585;SDS011;53444;45.822;16.092;2023-06-26T06:30:19;11.00;;;5.97;;
66585;SDS011;53444;45.822;16.092;2023-06-26T06:32:48;9.05;;;5.72;;
66585;SDS011;53444;45.822;16.092;2023-06-26T06:35:16;8.27;;;5.35;;
66585;SDS011;53444;45.822;16.092;2023-06-26T06:37:44;9.43;;;5.60;;
66585;SDS011;53444;45.822;16.092;2023-06-26T06:40:11;8.45;;;5.30;;
66585;SDS011;53444;45.822;16.092;2023-06-26T06:42:39;8.50;;;5.28;;
66585;SDS011;53444;45.822;16.092;2023-06-26T06:45:06;10.95;;;5.57;;
66585;SDS011;53444;45.822;16.092;2023-06-26T06:47:34;9.77;;;5.95;;
66585;SDS011;53444;45.822;16.092;2023-06-26T06:50:03;8.43;;;6.00;;
66585;SDS011;53444;45.822;16.092;2023-06-26T06:52:35;12.07;;;6.35;;
66585;SDS011;53444;45.822;16.092;2023-06-26T06:55:07;10.23;;;7.13;;
66585;SDS011;53444;45.822;16.092;2023-06-26T06:57:35;9.77;;;6.35;;
66585;SDS011;53444;45.822;16.092;2023-06-26T07:00:03;10.02;;;6.30;;
66585;SDS011;53444;45.822;16.092;2023-06-26T07:02:34;9.03;;;5.47;;
66585;SDS011;53444;45.822;16.092;2023-06-26T07:05:03;9.90;;;6.05;;
66585;SDS011;53444;45.822;16.092;2023-06-26T07:07:31;9.05;;;5.65;;
66585;SDS011;53444;45.822;16.092;2023-06-26T07:10:03;9.57;;;5.35;;
66585;SDS011;53444;45.822;16.092;2023-06-26T07:12:31;9.00;;;5.82;;
66585;SDS011;53444;45.822;16.092;2023-06-26T07:15:00;8.20;;;5.73;;
66585;SDS011;53444;45.822;16.092;2023-06-26T07:17:28;12.38;;;5.65;;
66585;SDS011;53444;45.822;16.092;2023-06-26T07:19:55;10.82;;;5.63;;
66585;SDS011;53444;45.822;16.092;2023-06-26T07:22:24;7.75;;;5.25;;
66585;SDS011;53444;45.822;16.092;2023-06-26T07:24:50;9.00;;;5.47;;
66585;SDS011;53444;45.822;16.092;2023-06-26T07:27:18;7.60;;;5.00;;
66585;SDS011;53444;45.822;16.092;2023-06-26T07:29:46;8.90;;;5.55;;
66585;SDS011;53444;45.822;16.092;2023-06-26T07:32:14;9.45;;;5.53;;
66585;SDS011;53444;45.822;16.092;2023-06-26T07:34:41;9.35;;;5.93;;
66585;SDS011;53444;45.822;16.092;2023-06-26T07:37:08;8.32;;;5.45;;
66585;SDS011;53444;45.822;16.092;2023-06-26T07:39:37;9.43;;;5.77;;
66585;SDS011;53444;45.822;16.092;2023-06-26T07:42:05;8.05;;;5.60;;
66585;SDS011;53444;45.822;16.092;2023-06-26T07:44:32;10.52;;;5.50;;
66585;SDS011;53444;45.822;16.092;2023-06-26T07:46:59;7.55;;;5.15;;
66585;SDS011;53444;45.822;16.092;2023-06-26T07:49:27;10.10;;;5.68;;
66585;SDS011;53444;45.822;16.092;2023-06-26T07:51:54;8.47;;;5.30;;
66585;SDS011;53444;45.822;16.092;2023-06-26T07:54:21;7.57;;;5.20;;
66585;SDS011;53444;45.822;16.092;2023-06-26T07:56:53;8.82;;;5.53;;
66585;SDS011;53444;45.822;16.092;2023-06-26T07:59:22;8.75;;;5.20;;
66585;SDS011;53444;45.822;16.092;2023-06-26T08:01:50;9.00;;;5.57;;
66585;SDS011;53444;45.822;16.092;2023-06-26T08:04:19;5.77;;;4.53;;
66585;SDS011;53444;45.822;16.092;2023-06-26T08:06:47;8.32;;;5.45;;
66585;SDS011;53444;45.822;16.092;2023-06-26T08:09:15;7.63;;;5.95;;
66585;SDS011;53444;45.822;16.092;2023-06-26T08:11:42;7.97;;;5.18;;
66585;SDS011;53444;45.822;16.092;2023-06-26T08:14:11;6.57;;;5.13;;
66585;SDS011;53444;45.822;16.092;2023-06-26T08:16:38;6.83;;;5.27;;
66585;SDS011;53444;45.822;16.092;2023-06-26T08:19:06;9.73;;;4.72;;
66585;SDS011;53444;45.822;16.092;2023-06-26T08:21:33;7.90;;;4.88;;
66585;SDS011;53444;45.822;16.092;2023-06-26T08:24:00;9.95;;;5.20;;
66585;SDS011;53444;45.822;16.092;2023-06-26T08:26:28;8.40;;;5.28;;
66585;SDS011;53444;45.822;16.092;2023-06-26T08:28:55;9.30;;;5.40;;
66585;SDS011;53444;45.822;16.092;2023-06-26T08:31:23;8.73;;;5.30;;
66585;SDS011;53444;45.822;16.092;2023-06-26T08:33:50;7.85;;;5.40;;
66585;SDS011;53444;45.822;16.092;2023-06-26T08:36:17;7.68;;;5.20;;
66585;SDS011;53444;45.822;16.092;2023-06-26T08:38:44;7.57;;;5.18;;
66585;SDS011;53444;45.822;16.092;2023-06-26T08:41:11;8.53;;;4.87;;
66585;SDS011;53444;45.822;16.092;2023-06-26T08:43:39;8.18;;;4.88;;
66585;SDS011;53444;45.822;16.092;2023-06-26T08:46:07;7.32;;;5.22;;
66585;SDS011;53444;45.822;16.092;2023-06-26T08:48:36;7.95;;;5.10;;
66585;SDS011;53444;45.822;16.092;2023-06-26T08:51:05;7.07;;;4.63;;
66585;SDS011;53444;45.822;16.092;2023-06-26T08:53:37;6.27;;;4.70;;
66585;SDS011;53444;45.822;16.092;2023-06-26T08:56:08;6.03;;;4.80;;
66585;SDS011;53444;45.822;16.092;2023-06-26T08:58:37;5.55;;;4.50;;
66585;SDS011;53444;45.822;16.092;2023-06-26T09:01:05;8.48;;;5.15;;
66585;SDS011;53444;45.822;16.092;2023-06-26T09:03:32;6.18;;;4.50;;
66585;SDS011;53444;45.822;16.092;2023-06-26T09:06:02;5.13;;;4.00;;
66585;SDS011;53444;45.822;16.092;2023-06-26T09:08:31;5.75;;;3.90;;
66585;SDS011;53444;45.822;16.092;2023-06-26T09:10:58;4.70;;;3.60;;
66585;SDS011;53444;45.822;16.092;2023-06-26T09:13:26;7.85;;;4.60;;
66585;SDS011;53444;45.822;16.092;2023-06-26T09:15:55;8.18;;;4.07;;
66585;SDS011;53444;45.822;16.092;2023-06-26T09:18:23;5.90;;;4.47;;
66585;SDS011;53444;45.822;16.092;2023-06-26T09:20:50;6.03;;;4.50;;
66585;SDS011;53444;45.822;16.092;2023-06-26T09:23:19;5.10;;;4.22;;
66585;SDS011;53444;45.822;16.092;2023-06-26T09:25:48;5.93;;;4.85;;
66585;SDS011;53444;45.822;16.092;2023-06-26T09:28:17;6.28;;;4.35;;
66585;SDS011;53444;45.822;16.092;2023-06-26T09:30:44;4.80;;;3.80;;
66585;SDS011;53444;45.822;16.092;2023-06-26T09:33:13;6.18;;;4.50;;
66585;SDS011;53444;45.822;16.092;2023-06-26T09:35:42;6.55;;;4.65;;
66585;SDS011;53444;45.822;16.092;2023-06-26T09:38:10;5.65;;;4.40;;
66585;SDS011;53444;45.822;16.092;2023-06-26T09:40:39;5.90;;;4.57;;
66585;SDS011;53444;45.822;16.092;2023-06-26T09:43:07;5.70;;;4.60;;
66585;SDS011;53444;45.822;16.092;2023-06-26T09:45:36;5.75;;;4.53;;
66585;SDS011;53444;45.822;16.092;2023-06-26T09:48:03;7.45;;;5.20;;
66585;SDS011;53444;45.822;16.092;2023-06-26T09:50:32;5.90;;;4.47;;
66585;SDS011;53444;45.822;16.092;2023-06-26T09:53:04;6.47;;;4.45;;
66585;SDS011;53444;45.822;16.092;2023-06-26T09:55:34;5.17;;;4.47;;
66585;SDS011;53444;45.822;16.092;2023-06-26T09:58:04;5.47;;;4.53;;
66585;SDS011;53444;45.822;16.092;2023-06-26T10:00:31;5.38;;;4.47;;
66585;SDS011;53444;45.822;16.092;2023-06-26T10:02:58;5.75;;;4.55;;
66585;SDS011;53444;45.822;16.092;2023-06-26T10:05:26;6.47;;;4.30;;
66585;SDS011;53444;45.822;16.092;2023-06-26T10:07:53;5.20;;;4.70;;
66585;SDS011;53444;45.822;16.092;2023-06-26T10:10:22;6.00;;;4.28;;
66585;SDS011;53444;45.822;16.092;2023-06-26T10:12:51;5.28;;;4.38;;
66585;SDS011;53444;45.822;16.092;2023-06-26T10:15:27;6.00;;;4.70;;
66585;SDS011;53444;45.822;16.092;2023-06-26T10:17:56;6.03;;;4.65;;
66585;SDS011;53444;45.822;16.092;2023-06-26T10:20:24;5.23;;;4.37;;
66585;SDS011;53444;45.822;16.092;2023-06-26T10:22:52;7.03;;;4.05;;
66585;SDS011;53444;45.822;16.092;2023-06-26T10:25:24;4.80;;;4.30;;
66585;SDS011;53444;45.822;16.092;2023-06-26T10:27:53;6.07;;;4.55;;
66585;SDS011;53444;45.822;16.092;2023-06-26T10:30:25;7.13;;;4.65;;
66585;SDS011;53444;45.822;16.092;2023-06-26T10:32:56;5.03;;;3.93;;
66585;SDS011;53444;45.822;16.092;2023-06-26T10:35:24;5.35;;;4.10;;
66585;SDS011;53444;45.822;16.092;2023-06-26T10:37:52;5.25;;;4.20;;
66585;SDS011;53444;45.822;16.092;2023-06-26T10:40:26;4.50;;;4.10;;
66585;SDS011;53444;45.822;16.092;2023-06-26T10:43:05;6.82;;;4.72;;
66585;SDS011;53444;45.822;16.092;2023-06-26T10:45:34;4.87;;;4.03;;
66585;SDS011;53444;45.822;16.092;2023-06-26T10:48:01;6.85;;;4.15;;
66585;SDS011;53444;45.822;16.092;2023-06-26T10:50:29;4.90;;;3.90;;
66585;SDS011;53444;45.822;16.092;2023-06-26T10:53:07;6.30;;;4.63;;
66585;SDS011;53444;45.822;16.092;2023-06-26T10:55:35;5.43;;;3.67;;
66585;SDS011;53444;45.822;16.092;2023-06-26T10:58:01;4.87;;;4.30;;
66585;SDS011;53444;45.822;16.092;2023-06-26T11:00:28;5.43;;;4.10;;
66585;SDS011;53444;45.822;16.092;2023-06-26T11:02:56;5.32;;;4.45;;
66585;SDS011;53444;45.822;16.092;2023-06-26T11:05:23;5.03;;;4.53;;
66585;SDS011;53444;45.822;16.092;2023-06-26T11:10:50;5.27;;;4.77;;
66585;SDS011;53444;45.822;16.092;2023-06-26T11:13:18;4.35;;;3.90;;
66585;SDS011;53444;45.822;16.092;2023-06-26T11:15:46;4.68;;;3.75;;
66585;SDS011;53444;45.822;16.092;2023-06-26T11:18:14;4.25;;;3.70;;
66585;SDS011;53444;45.822;16.092;2023-06-26T11:20:41;4.47;;;3.83;;
66585;SDS011;53444;45.822;16.092;2023-06-26T11:23:08;4.77;;;3.93;;
66585;SDS011;53444;45.822;16.092;2023-06-26T11:25:35;4.47;;;3.95;;
66585;SDS011;53444;45.822;16.092;2023-06-26T11:28:02;5.18;;;4.03;;
66585;SDS011;53444;45.822;16.092;2023-06-26T11:30:29;4.50;;;3.80;;
66585;SDS011;53444;45.822;16.092;2023-06-26T11:33:04;4.03;;;3.63;;
66585;SDS011;53444;45.822;16.092;2023-06-26T11:35:33;4.87;;;4.00;;
66585;SDS011;53444;45.822;16.092;2023-06-26T11:38:00;4.25;;;3.80;;
66585;SDS011;53444;45.822;16.092;2023-06-26T11:40:30;5.13;;;3.80;;
66585;SDS011;53444;45.822;16.092;2023-06-26T11:42:57;5.70;;;3.85;;
66585;SDS011;53444;45.822;16.092;2023-06-26T11:45:24;5.05;;;4.10;;
66585;SDS011;53444;45.822;16.092;2023-06-26T11:47:51;4.77;;;4.13;;
66585;SDS011;53444;45.822;16.092;2023-06-26T11:50:18;4.60;;;4.20;;
66585;SDS011;53444;45.822;16.092;2023-06-26T11:52:46;5.43;;;4.18;;
66585;SDS011;53444;45.822;16.092;2023-06-26T11:55:20;5.05;;;4.00;;
66585;SDS011;53444;45.822;16.092;2023-06-26T11:57:47;4.93;;;4.40;;
66585;SDS011;53444;45.822;16.092;2023-06-26T12:00:15;4.33;;;3.93;;
66585;SDS011;53444;45.822;16.092;2023-06-26T12:02:42;4.60;;;4.20;;
66585;SDS011;53444;45.822;16.092;2023-06-26T12:05:11;4.90;;;3.88;;
66585;SDS011;53444;45.822;16.092;2023-06-26T12:07:49;4.75;;;3.90;;
66585;SDS011;53444;45.822;16.092;2023-06-26T12:10:32;5.13;;;4.60;;
66585;SDS011;53444;45.822;16.092;2023-06-26T12:12:58;4.37;;;3.80;;
66585;SDS011;53444;45.822;16.092;2023-06-26T12:15:26;5.15;;;3.97;;
66585;SDS011;53444;45.822;16.092;2023-06-26T12:17:54;5.13;;;4.63;;
66585;SDS011;53444;45.822;16.092;2023-06-26T12:20:21;5.07;;;4.50;;
66585;SDS011;53444;45.822;16.092;2023-06-26T12:22:50;4.90;;;4.10;;
66585;SDS011;53444;45.822;16.092;2023-06-26T12:25:22;4.60;;;4.10;;
66585;SDS011;53444;45.822;16.092;2023-06-26T12:27:49;5.57;;;4.97;;
66585;SDS011;53444;45.822;16.092;2023-06-26T12:30:16;4.22;;;3.83;;
66585;SDS011;53444;45.822;16.092;2023-06-26T12:32:46;4.53;;;4.13;;
66585;SDS011;53444;45.822;16.092;2023-06-26T12:35:12;4.75;;;4.13;;
66585;SDS011;53444;45.822;16.092;2023-06-26T12:37:41;5.43;;;4.90;;
66585;SDS011;53444;45.822;16.092;2023-06-26T12:40:16;5.25;;;4.28;;
66585;SDS011;53444;45.822;16.092;2023-06-26T12:42:45;5.35;;;4.18;;
66585;SDS011;53444;45.822;16.092;2023-06-26T12:45:12;4.28;;;3.83;;
66585;SDS011;53444;45.822;16.092;2023-06-26T12:47:40;5.47;;;4.22;;
66585;SDS011;53444;45.822;16.092;2023-06-26T12:50:07;5.27;;;4.40;;
66585;SDS011;53444;45.822;16.092;2023-06-26T12:52:34;5.05;;;4.32;;
66585;SDS011;53444;45.822;16.092;2023-06-26T12:55:01;4.82;;;4.32;;
66585;SDS011;53444;45.822;16.092;2023-06-26T12:57:27;5.40;;;4.00;;
66585;SDS011;53444;45.822;16.092;2023-06-26T12:59:55;5.10;;;4.45;;
66585;SDS011;53444;45.822;16.092;2023-06-26T13:02:22;4.93;;;4.37;;
66585;SDS011;53444;45.822;16.092;2023-06-26T13:04:49;4.60;;;4.10;;
66585;SDS011;53444;45.822;16.092;2023-06-26T13:07:15;6.22;;;4.47;;
66585;SDS011;53444;45.822;16.092;2023-06-26T13:09:43;4.85;;;4.10;;
66585;SDS011;53444;45.822;16.092;2023-06-26T13:12:10;4.90;;;4.40;;
66585;SDS011;53444;45.822;16.092;2023-06-26T13:14:37;4.50;;;4.10;;
66585;SDS011;53444;45.822;16.092;2023-06-26T13:17:06;5.88;;;4.50;;
66585;SDS011;53444;45.822;16.092;2023-06-26T13:19:32;4.68;;;4.28;;
66585;SDS011;53444;45.822;16.092;2023-06-26T13:21:59;5.40;;;3.85;;
66585;SDS011;53444;45.822;16.092;2023-06-26T13:24:26;5.97;;;4.95;;
66585;SDS011;53444;45.822;16.092;2023-06-26T13:26:52;4.90;;;4.20;;
66585;SDS011;53444;45.822;16.092;2023-06-26T13:29:19;5.00;;;4.50;;
66585;SDS011;53444;45.822;16.092;2023-06-26T13:31:46;5.72;;;5.20;;
66585;SDS011;53444;45.822;16.092;2023-06-26T13:34:20;4.70;;;4.20;;
66585;SDS011;53444;45.822;16.092;2023-06-26T13:36:48;4.70;;;4.22;;
66585;SDS011;53444;45.822;16.092;2023-06-26T13:39:14;5.50;;;4.57;;
66585;SDS011;53444;45.822;16.092;2023-06-26T13:41:41;5.75;;;4.70;;
66585;SDS011;53444;45.822;16.092;2023-06-26T13:44:08;5.60;;;5.00;;
66585;SDS011;53444;45.822;16.092;2023-06-26T13:46:34;5.85;;;4.75;;
66585;SDS011;53444;45.822;16.092;2023-06-26T13:49:01;4.85;;;4.35;;
66585;SDS011;53444;45.822;16.092;2023-06-26T13:51:29;5.43;;;4.87;;
66585;SDS011;53444;45.822;16.092;2023-06-26T13:53:56;5.03;;;4.45;;
66585;SDS011;53444;45.822;16.092;2023-06-26T13:56:25;6.38;;;5.22;;
66585;SDS011;53444;45.822;16.092;2023-06-26T13:58:51;5.25;;;4.75;;
66585;SDS011;53444;45.822;16.092;2023-06-26T14:01:19;5.40;;;4.13;;
66585;SDS011;53444;45.822;16.092;2023-06-26T14:03:46;7.93;;;5.30;;
66585;SDS011;53444;45.822;16.092;2023-06-26T14:06:13;6.38;;;4.57;;
66585;SDS011;53444;45.822;16.092;2023-06-26T14:08:41;5.20;;;4.70;;
66585;SDS011;53444;45.822;16.092;2023-06-26T14:11:07;5.60;;;5.10;;
66585;SDS011;53444;45.822;16.092;2023-06-26T14:13:34;6.13;;;5.13;;
66585;SDS011;53444;45.822;16.092;2023-06-26T14:16:01;4.77;;;4.33;;
66585;SDS011;53444;45.822;16.092;2023-06-26T14:18:27;5.78;;;5.18;;
66585;SDS011;53444;45.822;16.092;2023-06-26T14:20:54;5.07;;;4.57;;
66585;SDS011;53444;45.822;16.092;2023-06-26T14:23:22;5.70;;;5.20;;
66585;SDS011;53444;45.822;16.092;2023-06-26T14:25:50;5.93;;;5.40;;
66585;SDS011;53444;45.822;16.092;2023-06-26T14:28:16;5.87;;;4.70;;
66585;SDS011;53444;45.822;16.092;2023-06-26T14:30:43;5.50;;;5.00;;
66585;SDS011;53444;45.822;16.092;2023-06-26T14:33:10;5.20;;;4.70;;
66585;SDS011;53444;45.822;16.092;2023-06-26T14:35:36;5.63;;;5.13;;
66585;SDS011;53444;45.822;16.092;2023-06-26T14:38:03;5.45;;;4.95;;
66585;SDS011;53444;45.822;16.092;2023-06-26T14:40:30;5.50;;;5.00;;
66585;SDS011;53444;45.822;16.092;2023-06-26T14:42:58;5.40;;;4.90;;